Time;durP1;ratioP1;P1;durP2;ratioP2;P2;SDS_P1;SDS_P2;PMS_P1;PMS_P2;Temp;Humidity;BMP_temperature;BMP_pressure;BME280_temperature;BME280_humidity;BME280_pressure;Samples;Min_cycle;Max_cycle;Signal;HPM_P1;HPM_P2
2023/04/23 00:00:56;;;;;;;1.95;0.50;;;20.80;72.40;;;;;;4200575;28;20701;-59
2023/04/23 00:03:20;;;;;;;1.83;0.55;;;20.80;72.40;;;;;;4206489;28;20114;-47
2023/04/23 00:05:44;;;;;;;0.70;0.70;;;20.80;72.40;;;;;;4206972;28;20388;-50
2023/04/23 00:08:07;;;;;;;5.82;1.00;;;20.80;72.10;;;;;;4204917;28;20039;-52
2023/04/23 00:10:30;;;;;;;5.07;1.30;;;20.80;71.60;;;;;;4207383;28;20434;-45
2023/04/23 00:12:52;;;;;;;3.50;1.20;;;20.80;71.60;;;;;;4207277;28;20124;-60
2023/04/23 00:15:15;;;;;;;1.60;0.60;;;20.80;71.50;;;;;;4208336;28;20495;-53
2023/04/23 00:17:38;;;;;;;1.17;0.80;;;20.80;71.50;;;;;;4202439;28;20119;-46
2023/04/23 00:20:00;;;;;;;3.15;1.25;;;20.90;71.50;;;;;;4204531;28;20522;-59
2023/04/23 00:22:23;;;;;;;2.20;1.02;;;21.00;71.70;;;;;;4207669;28;20042;-55
2023/04/23 00:24:46;;;;;;;1.42;0.45;;;21.00;72.00;;;;;;4206483;28;20420;-57
2023/04/23 00:27:08;;;;;;;0.60;0.60;;;21.10;72.20;;;;;;4208849;28;20048;-57
2023/04/23 00:29:31;;;;;;;2.03;0.70;;;21.10;72.00;;;;;;4188281;28;20438;-56
2023/04/23 00:31:54;;;;;;;1.80;0.50;;;21.20;71.90;;;;;;4208015;28;20064;-57
2023/04/23 00:34:16;;;;;;;0.50;0.50;;;21.20;71.80;;;;;;4215672;28;20036;-57
2023/04/23 00:36:39;;;;;;;0.55;0.50;;;21.30;71.70;;;;;;4215601;28;20035;-58
2023/04/23 00:39:01;;;;;;;11.85;1.42;;;21.30;71.50;;;;;;4205466;28;20055;-58
2023/04/23 00:41:26;;;;;;;3.83;1.20;;;21.30;71.70;;;;;;4205289;28;20972;-58
2023/04/23 00:43:51;;;;;;;4.45;1.33;;;21.30;71.60;;;;;;4208023;28;20036;-57
2023/04/23 00:46:15;;;;;;;5.57;1.10;;;21.30;71.60;;;;;;4205428;28;20499;-60
2023/04/23 00:48:39;;;;;;;1.85;0.93;;;21.30;71.60;;;;;;4194079;28;20131;-50
2023/04/23 00:51:07;;;;;;;;;;;21.30;71.50;;;;;;4172225;28;20539;-54
2023/04/23 00:53:30;;;;;;;5.22;1.25;;;21.40;71.60;;;;;;4183697;28;19916;-59
2023/04/23 00:55:52;;;;;;;11.15;3.00;;;21.40;71.60;;;;;;4182586;28;20116;-54
2023/04/23 00:58:15;;;;;;;12.95;1.67;;;21.40;71.50;;;;;;4167737;28;20040;-49
2023/04/23 01:00:45;;;;;;;21.60;2.35;;;21.50;71.60;;;;;;4190780;28;20144;-51
2023/04/23 01:03:09;;;;;;;30.45;3.22;;;21.50;71.50;;;;;;4184184;28;20120;-50
2023/04/23 01:05:31;;;;;;;8.60;1.45;;;21.50;71.50;;;;;;4175420;28;20029;-48
2023/04/23 01:07:54;;;;;;;9.20;1.40;;;21.50;71.10;;;;;;4183645;28;20032;-50
2023/04/23 01:10:17;;;;;;;6.93;1.40;;;21.60;71.20;;;;;;4183871;28;20044;-50
2023/04/23 01:12:39;;;;;;;2.50;0.82;;;21.50;71.30;;;;;;4192400;28;20117;-55
2023/04/23 01:15:03;;;;;;;13.50;2.35;;;21.50;71.50;;;;;;4192511;28;20040;-44
2023/04/23 01:17:25;;;;;;;12.27;1.80;;;21.50;71.40;;;;;;4185745;28;20033;-52
2023/04/23 01:19:48;;;;;;;10.98;2.03;;;21.60;71.30;;;;;;4183868;28;20076;-55
2023/04/23 01:22:15;;;;;;;4.53;1.40;;;21.60;71.50;;;;;;4188814;28;20029;-45
2023/04/23 01:24:38;;;;;;;8.05;1.63;;;21.60;71.50;;;;;;4190504;28;20041;-50
2023/04/23 01:27:01;;;;;;;3.67;1.05;;;21.60;71.10;;;;;;4189014;28;20127;-52
2023/04/23 01:29:23;;;;;;;3.22;1.55;;;21.60;70.90;;;;;;4193461;28;20032;-53
2023/04/23 01:31:47;;;;;;;3.30;1.30;;;21.70;70.30;;;;;;4188346;28;20489;-50
2023/04/23 01:34:10;;;;;;;5.03;1.50;;;21.60;70.10;;;;;;4188401;28;20028;-52
2023/04/23 01:36:33;;;;;;;2.83;1.23;;;21.60;70.10;;;;;;4183927;28;20045;-53
2023/04/23 01:38:56;;;;;;;2.85;1.60;;;21.60;70.00;;;;;;4183761;28;20784;-52
2023/04/23 01:41:21;;;;;;;3.33;1.45;;;21.60;70.00;;;;;;4188133;28;20036;-53
2023/04/23 01:43:44;;;;;;;2.85;1.58;;;21.60;70.00;;;;;;4191143;28;20036;-53
2023/04/23 01:46:07;;;;;;;2.33;1.35;;;21.60;70.00;;;;;;4186412;28;20075;-53
2023/04/23 01:48:29;;;;;;;3.90;1.42;;;21.60;70.00;;;;;;4181306;28;20048;-51
2023/04/23 01:50:52;;;;;;;2.15;1.48;;;21.60;69.90;;;;;;4187601;28;20476;-54
2023/04/23 01:53:15;;;;;;;2.65;1.42;;;21.60;69.80;;;;;;4193640;28;20111;-51
2023/04/23 01:55:39;;;;;;;3.78;1.40;;;21.60;69.80;;;;;;4195879;28;20040;-52
2023/04/23 01:58:01;;;;;;;3.03;1.45;;;21.60;69.80;;;;;;4207252;28;20028;-52
2023/04/23 02:00:24;;;;;;;2.25;1.45;;;21.60;69.70;;;;;;4199928;28;20449;-47
2023/04/23 02:02:46;;;;;;;2.33;1.60;;;21.60;69.70;;;;;;4205110;28;20038;-50
2023/04/23 02:05:17;;;;;;;3.67;1.70;;;21.70;69.60;;;;;;4206839;28;20495;-51
2023/04/23 02:07:40;;;;;;;3.28;1.50;;;21.60;69.50;;;;;;4203877;28;20043;-51
2023/04/23 02:10:03;;;;;;;2.90;1.50;;;21.70;69.60;;;;;;4182582;28;20068;-51
2023/04/23 02:12:25;;;;;;;2.78;1.38;;;21.70;69.50;;;;;;4202461;28;20163;-54
2023/04/23 02:14:48;;;;;;;2.05;1.50;;;21.70;69.60;;;;;;4208965;28;20543;-49
2023/04/23 02:17:11;;;;;;;2.42;1.42;;;21.70;69.60;;;;;;4202385;28;20035;-53
2023/04/23 02:19:34;;;;;;;3.15;1.92;;;21.70;69.60;;;;;;4207881;28;20093;-50
2023/04/23 02:21:57;;;;;;;2.50;1.60;;;21.70;69.60;;;;;;4201650;28;20491;-49
2023/04/23 02:24:19;;;;;;;2.10;1.50;;;21.70;69.70;;;;;;4207229;28;20036;-52
2023/04/23 02:26:41;;;;;;;3.30;1.88;;;21.70;69.60;;;;;;4207662;28;20043;-51
2023/04/23 02:29:04;;;;;;;2.83;1.50;;;21.70;69.60;;;;;;4199209;28;20627;-53
2023/04/23 02:31:27;;;;;;;3.40;2.10;;;21.70;69.70;;;;;;4203839;28;20054;-54
2023/04/23 02:33:50;;;;;;;2.97;1.60;;;21.70;69.70;;;;;;4209166;28;20063;-51
2023/04/23 02:36:12;;;;;;;2.10;1.50;;;21.70;69.60;;;;;;4208349;28;20056;-53
2023/04/23 02:38:34;;;;;;;4.43;1.90;;;21.70;69.60;;;;;;4198428;28;20056;-51
2023/04/23 02:40:57;;;;;;;3.60;1.90;;;21.70;69.60;;;;;;4200978;28;20067;-55
2023/04/23 02:43:19;;;;;;;2.85;1.63;;;21.70;69.70;;;;;;4208392;28;20047;-55
2023/04/23 02:45:42;;;;;;;3.65;1.95;;;21.80;69.80;;;;;;4208777;28;20467;-52
2023/04/23 02:48:04;;;;;;;2.85;1.90;;;21.80;69.70;;;;;;4201165;28;20165;-51
2023/04/23 02:50:26;;;;;;;3.55;2.17;;;21.80;69.80;;;;;;4205045;28;20109;-48
2023/04/23 02:52:49;;;;;;;3.58;2.13;;;21.80;69.70;;;;;;4205654;28;20181;-51
2023/04/23 02:55:11;;;;;;;2.95;2.10;;;21.80;69.70;;;;;;4208596;28;20532;-50
2023/04/23 02:57:34;;;;;;;3.53;2.05;;;21.80;69.70;;;;;;4204127;28;20039;-50
2023/04/23 02:59:56;;;;;;;2.90;1.98;;;21.90;69.70;;;;;;4200034;28;20043;-49
2023/04/23 03:02:19;;;;;;;3.20;2.05;;;21.90;69.70;;;;;;4208541;28;20062;-51
2023/04/23 03:04:41;;;;;;;3.72;1.80;;;21.90;69.60;;;;;;4207828;28;20048;-51
2023/04/23 03:07:04;;;;;;;3.60;2.20;;;22.00;70.20;;;;;;4204518;28;20040;-53
2023/04/23 03:09:26;;;;;;;3.47;2.53;;;22.00;69.70;;;;;;4207829;28;20044;-50
2023/04/23 03:11:49;;;;;;;4.43;2.30;;;22.00;69.70;;;;;;4207884;28;20090;-49
2023/04/23 03:14:12;;;;;;;3.97;2.40;;;22.00;69.80;;;;;;4210023;28;20434;-51
2023/04/23 03:16:35;;;;;;;3.83;2.53;;;22.00;69.90;;;;;;4199620;28;20432;-53
2023/04/23 03:18:58;;;;;;;4.03;2.42;;;22.00;70.20;;;;;;4201014;28;20028;-49
2023/04/23 03:21:21;;;;;;;4.82;2.70;;;22.10;70.20;;;;;;4194225;28;20055;-50
2023/04/23 03:23:43;;;;;;;4.18;2.55;;;22.10;70.20;;;;;;4206120;28;20036;-51
2023/04/23 03:26:06;;;;;;;4.53;2.47;;;22.10;70.20;;;;;;4203751;28;20040;-48
2023/04/23 03:28:28;;;;;;;4.18;2.53;;;22.10;70.20;;;;;;4207534;28;20484;-48
2023/04/23 03:30:51;;;;;;;5.75;2.70;;;22.10;70.20;;;;;;4205907;28;20054;-51
2023/04/23 03:33:13;;;;;;;4.55;2.60;;;22.20;70.30;;;;;;4208558;28;20028;-49
2023/04/23 03:35:35;;;;;;;5.75;2.72;;;22.20;70.30;;;;;;4207044;28;20040;-50
2023/04/23 03:37:58;;;;;;;4.57;2.58;;;22.20;70.30;;;;;;4203091;28;20040;-46
2023/04/23 03:40:21;;;;;;;3.47;2.60;;;22.20;70.30;;;;;;4213767;28;20385;-51
2023/04/23 03:42:43;;;;;;;4.82;2.83;;;22.30;70.30;;;;;;4201786;28;20067;-47
2023/04/23 03:45:06;;;;;;;3.70;2.40;;;22.30;70.20;;;;;;4208689;28;20036;-51
2023/04/23 03:47:29;;;;;;;4.78;2.88;;;22.30;70.20;;;;;;4208705;28;20040;-54
2023/04/23 03:49:51;;;;;;;5.13;2.53;;;22.30;70.10;;;;;;4188652;28;20040;-53
2023/04/23 03:52:14;;;;;;;4.70;2.50;;;22.30;69.90;;;;;;4190738;28;20094;-48
2023/04/23 03:54:36;;;;;;;4.00;2.70;;;22.40;70.00;;;;;;4191203;28;20079;-52
2023/04/23 03:56:59;;;;;;;3.97;2.40;;;22.50;69.90;;;;;;4183099;28;20514;-51
2023/04/23 03:59:22;;;;;;;4.27;2.67;;;22.50;69.70;;;;;;4175300;28;20044;-49
2023/04/23 04:01:44;;;;;;;4.07;2.65;;;22.50;69.60;;;;;;4183493;28;20700;-51
2023/04/23 04:04:07;;;;;;;4.72;2.50;;;22.60;69.60;;;;;;4187185;28;20051;-51
2023/04/23 04:06:30;;;;;;;4.22;2.45;;;22.60;69.50;;;;;;4190833;28;20035;-49
2023/04/23 04:08:52;;;;;;;4.03;2.70;;;22.60;70.00;;;;;;4177930;28;20064;-51
2023/04/23 04:11:15;;;;;;;4.53;2.50;;;22.60;69.50;;;;;;4189729;28;20507;-53
2023/04/23 04:13:37;;;;;;;4.38;2.40;;;22.60;69.50;;;;;;4190041;28;20037;-51
2023/04/23 04:16:00;;;;;;;4.68;3.20;;;22.60;69.30;;;;;;4191980;28;20044;-51
2023/04/23 04:18:22;;;;;;;5.22;2.75;;;22.70;69.40;;;;;;4172729;28;20037;-50
2023/04/23 04:20:45;;;;;;;3.70;2.35;;;22.70;69.40;;;;;;4192440;28;20044;-48
2023/04/23 04:23:07;;;;;;;5.60;2.83;;;22.70;69.30;;;;;;4173590;28;20087;-50
2023/04/23 04:25:29;;;;;;;4.22;2.70;;;22.80;69.20;;;;;;4189332;28;20028;-48
2023/04/23 04:27:52;;;;;;;4.70;2.53;;;22.90;69.20;;;;;;4189020;28;20032;-51
2023/04/23 04:30:14;;;;;;;4.30;2.90;;;22.90;69.00;;;;;;4188604;28;20496;-51
2023/04/23 04:32:37;;;;;;;4.78;2.72;;;22.90;68.90;;;;;;4192324;28;20040;-49
2023/04/23 04:35:00;;;;;;;4.45;2.97;;;22.90;68.80;;;;;;4189454;28;20542;-54
2023/04/23 04:37:22;;;;;;;3.78;2.67;;;22.90;68.90;;;;;;4194024;28;20032;-48
2023/04/23 04:39:45;;;;;;;4.10;2.40;;;22.90;68.90;;;;;;4191139;28;20047;-49
2023/04/23 04:42:07;;;;;;;3.28;2.40;;;22.80;68.90;;;;;;4185040;28;20123;-51
2023/04/23 04:44:29;;;;;;;5.38;2.33;;;22.80;68.90;;;;;;4190792;28;20064;-53
2023/04/23 04:46:52;;;;;;;4.35;2.53;;;22.90;69.00;;;;;;4192423;28;20060;-48
2023/04/23 04:49:18;;;;;;;3.58;2.53;;;22.90;68.90;;;;;;4213725;28;20503;-47
2023/04/23 04:51:41;;;;;;;4.15;2.50;;;23.00;68.80;;;;;;4206856;28;20126;-50
2023/04/23 04:54:03;;;;;;;4.40;2.65;;;23.10;68.50;;;;;;4201964;28;20032;-47
2023/04/23 04:56:26;;;;;;;3.63;2.80;;;23.10;68.50;;;;;;4191706;28;20388;-47
2023/04/23 04:58:48;;;;;;;4.53;3.08;;;23.10;68.50;;;;;;4198293;28;20040;-50
2023/04/23 05:01:12;;;;;;;3.33;2.50;;;23.10;68.50;;;;;;4206005;28;20476;-48
2023/04/23 05:03:35;;;;;;;4.22;2.65;;;23.10;68.60;;;;;;4205625;28;20118;-50
2023/04/23 05:05:58;;;;;;;3.25;2.58;;;23.00;68.60;;;;;;4203961;28;20078;-50
2023/04/23 05:08:20;;;;;;;3.45;2.55;;;23.00;68.70;;;;;;4208713;28;20036;-51
2023/04/23 05:10:44;;;;;;;3.95;2.60;;;23.00;68.80;;;;;;4204717;28;20070;-51
2023/04/23 05:13:06;;;;;;;3.17;2.30;;;23.00;69.10;;;;;;4204653;28;20078;-53
2023/04/23 05:15:29;;;;;;;3.50;2.70;;;23.00;69.00;;;;;;4204110;28;20063;-50
2023/04/23 05:17:53;;;;;;;3.42;2.53;;;23.00;68.90;;;;;;4195097;28;20040;-48
2023/04/23 05:20:15;;;;;;;3.40;2.58;;;23.10;68.90;;;;;;4193419;28;20040;-53
2023/04/23 05:22:40;;;;;;;3.22;2.60;;;23.10;68.70;;;;;;4208980;28;20115;-51
2023/04/23 05:25:02;;;;;;;4.22;2.75;;;23.00;68.60;;;;;;4197130;28;20126;-49
2023/04/23 05:27:25;;;;;;;3.15;2.25;;;23.10;68.70;;;;;;4208247;28;20039;-51
2023/04/23 05:29:48;;;;;;;3.45;2.60;;;23.10;68.70;;;;;;4199852;28;20055;-52
2023/04/23 05:32:10;;;;;;;4.25;2.40;;;23.00;68.70;;;;;;4206819;28;20107;-51
2023/04/23 05:34:32;;;;;;;3.53;2.40;;;23.00;68.70;;;;;;4208320;28;20047;-54
2023/04/23 05:36:55;;;;;;;4.03;2.63;;;23.00;68.80;;;;;;4205928;28;20028;-53
2023/04/23 05:39:17;;;;;;;3.03;2.28;;;23.00;68.90;;;;;;4210608;28;20040;-52
2023/04/23 05:41:40;;;;;;;3.72;2.28;;;23.00;68.90;;;;;;4204477;28;20032;-50
2023/04/23 05:44:02;;;;;;;3.72;2.70;;;23.00;69.00;;;;;;4186274;28;20214;-54
2023/04/23 05:46:25;;;;;;;4.68;2.80;;;23.00;69.10;;;;;;4207730;28;20071;-50
2023/04/23 05:48:47;;;;;;;3.22;2.45;;;22.90;69.10;;;;;;4187570;28;20091;-53
2023/04/23 05:51:10;;;;;;;4.13;2.35;;;22.90;69.20;;;;;;4193447;28;20049;-53
2023/04/23 05:53:32;;;;;;;4.45;2.70;;;22.90;69.20;;;;;;4184986;28;20036;-49
2023/04/23 05:55:55;;;;;;;3.67;2.50;;;22.90;69.20;;;;;;4192544;28;20040;-50
2023/04/23 05:58:18;;;;;;;4.00;2.72;;;22.90;69.40;;;;;;4190916;28;20044;-53
2023/04/23 06:00:40;;;;;;;4.40;2.70;;;22.90;69.50;;;;;;4181242;28;20036;-52
2023/04/23 06:03:03;;;;;;;4.10;2.70;;;22.90;69.40;;;;;;4180314;28;20044;-51
2023/04/23 06:05:25;;;;;;;4.75;2.65;;;22.90;69.50;;;;;;4192386;28;20488;-52
2023/04/23 06:07:48;;;;;;;4.20;2.53;;;22.90;70.00;;;;;;4189884;28;20090;-49
2023/04/23 06:10:11;;;;;;;3.38;2.72;;;22.90;69.40;;;;;;4184930;28;20056;-49
2023/04/23 06:12:37;;;;;;;3.85;2.83;;;22.90;69.40;;;;;;4172008;28;20751;-49
2023/04/23 06:15:00;;;;;;;3.72;2.67;;;22.80;69.30;;;;;;4174213;28;20060;-51
2023/04/23 06:17:22;;;;;;;3.40;2.47;;;22.80;69.30;;;;;;4183541;28;20056;-47
2023/04/23 06:19:45;;;;;;;4.07;2.95;;;22.80;69.50;;;;;;4191893;28;20097;-52
2023/04/23 06:22:07;;;;;;;4.10;2.72;;;22.80;69.40;;;;;;4191241;28;20063;-50
2023/04/23 06:24:30;;;;;;;3.30;2.70;;;22.80;69.50;;;;;;4193124;28;20526;-49
2023/04/23 06:26:52;;;;;;;3.28;2.90;;;22.80;69.60;;;;;;4191999;28;20044;-51
2023/04/23 06:29:15;;;;;;;3.88;2.80;;;22.80;69.60;;;;;;4177124;28;20083;-52
2023/04/23 06:31:38;;;;;;;3.17;2.70;;;22.80;70.00;;;;;;4187677;28;20075;-52
2023/04/23 06:34:00;;;;;;;3.50;2.72;;;22.80;69.90;;;;;;4189855;28;20045;-51
2023/04/23 06:36:23;;;;;;;3.00;2.63;;;22.70;70.40;;;;;;4184604;28;20033;-54
2023/04/23 06:38:45;;;;;;;3.78;2.88;;;22.70;70.00;;;;;;4181689;28;20154;-49
2023/04/23 06:41:07;;;;;;;3.17;2.83;;;22.70;69.90;;;;;;4184842;28;20508;-55
2023/04/23 06:43:30;;;;;;;4.35;3.20;;;22.70;69.60;;;;;;4179020;28;20099;-51
2023/04/23 06:45:53;;;;;;;4.35;3.13;;;22.70;69.80;;;;;;4182339;28;20048;-51
2023/04/23 06:48:17;;;;;;;3.97;3.45;;;22.70;70.00;;;;;;4191187;28;20052;-49
2023/04/23 06:50:39;;;;;;;6.28;3.35;;;22.70;70.10;;;;;;4202416;28;20149;-49
2023/04/23 06:53:02;;;;;;;4.65;3.22;;;22.70;70.20;;;;;;4191331;28;20107;-52
2023/04/23 06:55:25;;;;;;;4.68;3.28;;;22.70;70.00;;;;;;4200936;28;20032;-51
2023/04/23 06:57:47;;;;;;;4.82;3.20;;;22.70;70.10;;;;;;4191033;28;20436;-51
2023/04/23 07:00:10;;;;;;;5.45;3.22;;;22.70;70.10;;;;;;4208691;28;20040;-52
2023/04/23 07:02:33;;;;;;;5.60;3.58;;;22.70;70.00;;;;;;4204848;28;20082;-52
2023/04/23 07:04:56;;;;;;;4.43;3.05;;;22.70;70.20;;;;;;4200950;28;20037;-53
2023/04/23 07:07:18;;;;;;;4.68;3.53;;;22.70;70.10;;;;;;4208807;28;20055;-54
2023/04/23 07:09:40;;;;;;;4.35;3.35;;;22.70;70.20;;;;;;4208190;28;20109;-52
2023/04/23 07:12:03;;;;;;;5.32;3.30;;;22.70;70.30;;;;;;4199423;28;20036;-53
2023/04/23 07:14:25;;;;;;;4.65;3.25;;;22.70;70.40;;;;;;4207726;28;20036;-54
2023/04/23 07:16:48;;;;;;;4.70;3.30;;;22.70;70.40;;;;;;4202235;28;20081;-53
2023/04/23 07:19:10;;;;;;;4.95;3.30;;;22.70;70.20;;;;;;4208479;28;20486;-53
2023/04/23 07:21:32;;;;;;;4.80;3.25;;;22.70;70.30;;;;;;4201035;28;20044;-55
2023/04/23 07:23:58;;;;;;;4.25;3.00;;;22.60;70.50;;;;;;4199371;28;20127;-49
2023/04/23 07:26:21;;;;;;;7.47;3.45;;;22.70;70.40;;;;;;4206891;28;20069;-50
2023/04/23 07:28:45;;;;;;;4.90;3.50;;;22.60;70.50;;;;;;4198752;28;20475;-51
2023/04/23 07:31:07;;;;;;;4.93;3.65;;;22.60;70.30;;;;;;4198726;28;20097;-49
2023/04/23 07:33:30;;;;;;;4.38;3.17;;;22.70;70.50;;;;;;4207912;28;20035;-50
2023/04/23 07:35:52;;;;;;;6.43;3.50;;;22.60;70.50;;;;;;4208307;28;20419;-54
2023/04/23 07:38:15;;;;;;;4.88;3.60;;;22.60;70.50;;;;;;4193559;28;20043;-54
2023/04/23 07:40:37;;;;;;;4.07;3.10;;;22.60;70.50;;;;;;4203470;28;20082;-53
2023/04/23 07:43:00;;;;;;;4.95;3.03;;;22.60;70.50;;;;;;4207943;28;20032;-50
2023/04/23 07:45:22;;;;;;;5.50;3.72;;;22.60;70.50;;;;;;4205914;28;20066;-47
2023/04/23 07:47:48;;;;;;;4.95;3.03;;;22.60;70.50;;;;;;4205769;28;20036;-48
2023/04/23 07:50:10;;;;;;;4.68;3.10;;;22.60;70.60;;;;;;4190233;28;20566;-50
2023/04/23 07:52:35;;;;;;;5.05;3.60;;;22.60;70.70;;;;;;4198390;28;20462;-50
2023/04/23 07:54:57;;;;;;;5.10;3.42;;;22.60;70.80;;;;;;4202305;28;20125;-52
2023/04/23 07:57:20;;;;;;;7.95;3.70;;;22.60;70.90;;;;;;4205398;28;20024;-52
2023/04/23 07:59:42;;;;;;;5.53;3.85;;;22.60;70.90;;;;;;4201505;28;20423;-47
2023/04/23 08:02:05;;;;;;;4.38;3.35;;;22.60;71.00;;;;;;4199877;28;20063;-50
2023/04/23 08:04:27;;;;;;;5.38;3.22;;;22.60;70.90;;;;;;4204227;28;20047;-47
2023/04/23 08:06:50;;;;;;;5.82;3.80;;;22.60;70.90;;;;;;4204479;28;20089;-51
2023/04/23 08:09:12;;;;;;;5.90;3.95;;;22.60;71.00;;;;;;4201800;28;20039;-53
2023/04/23 08:11:34;;;;;;;5.53;3.90;;;22.60;71.20;;;;;;4189766;28;20052;-51
2023/04/23 08:13:57;;;;;;;4.50;3.35;;;22.60;71.20;;;;;;4204903;28;20395;-53
2023/04/23 08:16:19;;;;;;;4.90;3.50;;;22.60;71.20;;;;;;4195819;28;20465;-51
2023/04/23 08:18:42;;;;;;;4.30;3.42;;;22.60;71.30;;;;;;4201449;28;20029;-53
2023/04/23 08:21:04;;;;;;;4.80;3.63;;;22.50;71.30;;;;;;4204782;28;20036;-50
2023/04/23 08:23:27;;;;;;;5.60;3.45;;;22.50;71.30;;;;;;4190314;28;20081;-49
2023/04/23 08:25:49;;;;;;;6.60;3.83;;;22.50;71.50;;;;;;4204775;28;20040;-51
2023/04/23 08:28:12;;;;;;;4.85;3.58;;;22.50;71.40;;;;;;4200305;28;20056;-53
2023/04/23 08:30:34;;;;;;;4.78;3.40;;;22.50;71.50;;;;;;4206124;28;20464;-52
2023/04/23 08:32:57;;;;;;;4.88;3.90;;;22.50;71.50;;;;;;4201955;28;20044;-51
2023/04/23 08:35:20;;;;;;;4.32;3.83;;;22.50;71.60;;;;;;4205083;28;20070;-50
2023/04/23 08:37:42;;;;;;;4.47;3.57;;;22.50;71.60;;;;;;4192021;28;20451;-50
2023/04/23 08:40:06;;;;;;;4.75;3.25;;;22.50;71.60;;;;;;4202662;28;20275;-51
2023/04/23 08:43:13;;;;;;;5.22;3.88;;;22.50;71.60;;;;;;4194958;28;20533;-46
2023/04/23 08:45:40;;;;;;;4.65;3.90;;;22.50;71.70;;;;;;4127293;28;20030;-49
2023/04/23 08:48:04;;;;;;;4.82;3.72;;;22.50;71.70;;;;;;4201587;28;20074;-53
2023/04/23 08:50:28;;;;;;;5.80;4.00;;;22.50;71.70;;;;;;4204683;28;20062;-53
2023/04/23 08:52:53;;;;;;;4.70;3.53;;;22.50;71.70;;;;;;4204717;28;20556;-48
2023/04/23 08:55:17;;;;;;;4.95;4.00;;;22.60;71.80;;;;;;4191040;28;20037;-49
2023/04/23 08:57:40;;;;;;;4.72;3.85;;;22.50;71.70;;;;;;4209753;28;20412;-49
2023/04/23 09:00:05;;;;;;;4.63;3.60;;;22.50;71.80;;;;;;4200233;28;20133;-51
2023/04/23 09:02:28;;;;;;;4.88;4.00;;;22.50;71.80;;;;;;4194087;28;20037;-49
2023/04/23 09:04:53;;;;;;;4.07;3.65;;;22.50;71.80;;;;;;4209866;28;20123;-55
2023/04/23 09:07:16;;;;;;;4.47;3.63;;;22.50;71.90;;;;;;4200618;28;20035;-48
2023/04/23 09:09:39;;;;;;;5.38;3.90;;;22.50;72.00;;;;;;4199776;28;20051;-50
2023/04/23 09:12:03;;;;;;;4.38;3.95;;;22.50;72.00;;;;;;4212156;28;20373;-50
2023/04/23 09:14:26;;;;;;;4.97;3.70;;;22.50;72.00;;;;;;4196376;28;20101;-52
2023/04/23 09:16:49;;;;;;;5.03;4.10;;;22.50;72.00;;;;;;4185194;28;20072;-49
2023/04/23 09:19:12;;;;;;;5.32;4.20;;;22.50;72.00;;;;;;4190979;28;20040;-53
2023/04/23 09:21:35;;;;;;;5.68;3.75;;;22.50;72.10;;;;;;4208174;28;20046;-53
2023/04/23 09:23:57;;;;;;;5.45;4.05;;;22.50;72.10;;;;;;4210514;28;20036;-50
2023/04/23 09:26:21;;;;;;;4.95;3.80;;;22.50;72.20;;;;;;4198056;28;20087;-53
2023/04/23 09:28:48;;;;;;;4.50;3.85;;;22.50;72.20;;;;;;4200697;28;20053;-50
2023/04/23 09:31:10;;;;;;;4.88;3.88;;;22.50;72.20;;;;;;4208268;28;20470;-51
2023/04/23 09:33:35;;;;;;;4.80;3.95;;;22.40;72.20;;;;;;4206834;28;20024;-53
2023/04/23 09:35:57;;;;;;;5.85;4.35;;;22.40;72.20;;;;;;4209257;28;20036;-52
2023/04/23 09:38:20;;;;;;;5.63;4.20;;;22.40;72.20;;;;;;4200800;28;20043;-49
2023/04/23 09:40:42;;;;;;;4.80;4.10;;;22.40;72.30;;;;;;4199497;28;20040;-48
2023/04/23 09:43:09;;;;;;;5.22;4.03;;;22.40;72.30;;;;;;4196965;28;20143;-49
2023/04/23 09:45:34;;;;;;;5.65;4.00;;;22.40;72.30;;;;;;4198125;28;20035;-52
2023/04/23 09:47:57;;;;;;;5.30;4.00;;;22.40;72.40;;;;;;4195284;28;20043;-48
2023/04/23 09:50:37;;;;;;;4.72;3.83;;;22.40;72.40;;;;;;4196237;28;20052;-51
2023/04/23 09:53:00;;;;;;;4.93;3.90;;;22.40;72.30;;;;;;4186802;28;20036;-52
2023/04/23 09:55:37;;;;;;;4.80;3.80;;;22.40;72.40;;;;;;4192002;28;20074;-49
2023/04/23 09:58:02;;;;;;;5.47;4.50;;;22.40;72.40;;;;;;4197956;28;20609;-51
2023/04/23 10:00:28;;;;;;;4.40;3.42;;;22.40;72.40;;;;;;4200165;28;20465;-51
2023/04/23 10:02:51;;;;;;;5.47;4.28;;;22.40;72.40;;;;;;4200292;28;20028;-51
2023/04/23 10:05:21;;;;;;;4.88;3.80;;;22.40;72.40;;;;;;4195546;28;20071;-48
2023/04/23 10:07:48;;;;;;;5.40;4.15;;;22.40;72.40;;;;;;4199167;28;20458;-51
2023/04/23 10:10:12;;;;;;;4.88;3.80;;;22.40;72.40;;;;;;4177292;28;20052;-50
2023/04/23 10:12:35;;;;;;;4.32;3.83;;;22.40;72.40;;;;;;4202198;28;20055;-52
2023/04/23 10:14:58;;;;;;;4.30;3.90;;;22.40;72.40;;;;;;4197262;28;20395;-51
2023/04/23 10:17:20;;;;;;;5.13;3.83;;;22.40;72.50;;;;;;4184628;28;20464;-52
2023/04/23 10:19:43;;;;;;;5.55;4.32;;;22.40;72.40;;;;;;4197192;28;20117;-51
2023/04/23 10:22:10;;;;;;;5.00;3.85;;;22.40;72.50;;;;;;4188042;28;20036;-49
2023/04/23 10:24:34;;;;;;;4.88;3.85;;;22.40;72.50;;;;;;4192398;28;20521;-49
2023/04/23 10:26:59;;;;;;;5.45;4.18;;;22.40;72.50;;;;;;4200780;28;20389;-53
2023/04/23 10:29:28;;;;;;;5.40;4.03;;;22.30;72.50;;;;;;4201570;28;20143;-52
2023/04/23 10:31:52;;;;;;;5.10;3.88;;;22.40;72.50;;;;;;4200478;28;20083;-51
2023/04/23 10:34:16;;;;;;;4.88;3.80;;;22.30;72.50;;;;;;4183403;28;20047;-50
2023/04/23 10:36:38;;;;;;;4.35;3.58;;;22.30;72.50;;;;;;4200878;28;20047;-47
2023/04/23 10:39:06;;;;;;;4.85;4.18;;;22.30;72.50;;;;;;4201053;28;20569;-51
2023/04/23 10:41:35;;;;;;;5.35;4.15;;;22.30;72.50;;;;;;4190322;28;20047;-51
2023/04/23 10:43:58;;;;;;;4.85;4.07;;;22.30;72.50;;;;;;4197680;28;20063;-53
2023/04/23 10:46:28;;;;;;;5.10;4.00;;;22.30;72.50;;;;;;4193118;28;20075;-51
2023/04/23 10:49:15;;;;;;;5.30;3.92;;;22.30;72.50;;;;;;4185723;28;20496;-49
2023/04/23 10:51:38;;;;;;;4.20;3.70;;;22.30;72.50;;;;;;4180573;28;20041;-52
2023/04/23 10:54:01;;;;;;;4.03;3.53;;;22.30;72.50;;;;;;4183498;28;20045;-51
2023/04/23 10:56:26;;;;;;;5.70;4.13;;;22.30;72.50;;;;;;4181532;28;20123;-54
2023/04/23 10:58:50;;;;;;;4.47;3.70;;;22.30;72.50;;;;;;4177867;28;20413;-51
2023/04/23 11:01:13;;;;;;;4.93;3.97;;;22.30;72.50;;;;;;4183375;28;20032;-47
2023/04/23 11:03:41;;;;;;;4.45;3.63;;;22.30;72.50;;;;;;4177639;28;20040;-55
2023/04/23 11:06:05;;;;;;;4.55;3.90;;;22.30;72.60;;;;;;4168489;28;20045;-53
2023/04/23 11:08:32;;;;;;;4.57;3.67;;;22.30;72.60;;;;;;4178151;28;20048;-51
2023/04/23 11:10:56;;;;;;;4.43;3.67;;;22.20;72.50;;;;;;4171841;28;20045;-53
2023/04/23 11:13:26;;;;;;;5.65;3.90;;;22.20;72.60;;;;;;4159816;28;20887;-48
2023/04/23 11:16:08;;;;;;;4.80;3.72;;;22.30;72.80;;;;;;4184360;28;20044;-49
2023/04/23 11:18:51;;;;;;;5.10;3.67;;;22.20;72.60;;;;;;4182921;28;20806;-49
2023/04/23 11:21:13;;;;;;;4.93;3.78;;;22.20;72.60;;;;;;4182685;28;20049;-50
2023/04/23 11:23:36;;;;;;;3.95;3.55;;;22.20;72.60;;;;;;4182522;28;20174;-47
2023/04/23 11:25:59;;;;;;;4.55;3.75;;;22.20;72.60;;;;;;4184068;28;20040;-49
2023/04/23 11:28:21;;;;;;;4.35;3.22;;;22.20;72.60;;;;;;4180907;28;20067;-50
2023/04/23 11:30:50;;;;;;;4.10;3.50;;;22.20;72.60;;;;;;4180512;28;20511;-52
2023/04/23 11:33:12;;;;;;;4.10;3.40;;;22.20;72.60;;;;;;4179937;28;20066;-54
2023/04/23 11:35:39;;;;;;;4.05;3.47;;;22.20;72.60;;;;;;4180715;28;20044;-48
2023/04/23 11:38:09;;;;;;;4.38;3.90;;;22.20;72.60;;;;;;4179888;28;20142;-51
2023/04/23 11:40:33;;;;;;;5.40;3.58;;;22.20;72.60;;;;;;4180052;28;20467;-50
2023/04/23 11:42:56;;;;;;;4.55;3.65;;;22.20;72.60;;;;;;4189437;28;20044;-48
2023/04/23 11:45:26;;;;;;;5.03;3.80;;;22.20;72.60;;;;;;4166764;28;20631;-47
2023/04/23 11:48:00;;;;;;;4.15;3.53;;;22.20;72.60;;;;;;4180679;28;20045;-46
2023/04/23 11:50:27;;;;;;;4.90;3.72;;;22.20;72.60;;;;;;4180096;28;20567;-55
2023/04/23 11:52:51;;;;;;;5.05;3.70;;;22.20;72.60;;;;;;4173824;28;20408;-52
2023/04/23 11:55:14;;;;;;;3.83;3.25;;;22.20;72.70;;;;;;4175545;28;20083;-49
2023/04/23 11:57:40;;;;;;;5.32;3.63;;;22.10;72.60;;;;;;4180381;28;20048;-48
2023/04/23 12:00:26;;;;;;;4.22;3.20;;;22.10;72.60;;;;;;4184492;28;20465;-53
2023/04/23 12:02:59;;;;;;;4.28;3.47;;;22.10;72.70;;;;;;4174124;28;20041;-50
2023/04/23 12:05:30;;;;;;;4.35;3.42;;;22.10;72.70;;;;;;4184296;28;20036;-52
2023/04/23 12:07:52;;;;;;;4.97;3.20;;;22.10;73.30;;;;;;4183436;28;20040;-48
2023/04/23 12:10:21;;;;;;;5.57;3.60;;;22.10;72.70;;;;;;4179068;28;20045;-50
2023/04/23 12:12:44;;;;;;;3.78;3.20;;;22.10;72.70;;;;;;4181590;28;20088;-50
2023/04/23 12:15:07;;;;;;;4.25;3.25;;;22.10;72.70;;;;;;4178877;28;20124;-45
2023/04/23 12:17:30;;;;;;;10.05;4.10;;;22.10;72.80;;;;;;4181854;28;20054;-55
2023/04/23 12:19:52;;;;;;;4.57;3.20;;;22.10;73.20;;;;;;4182294;28;20123;-48
2023/04/23 12:22:15;;;;;;;8.73;3.38;;;22.10;73.60;;;;;;4185996;28;20480;-57
2023/04/23 12:24:51;;;;;;;5.80;3.30;;;22.10;73.70;;;;;;4183771;28;20051;-60
2023/04/23 12:27:19;;;;;;;5.70;3.28;;;22.10;73.70;;;;;;4189401;28;20068;-59
2023/04/23 12:29:41;;;;;;;5.35;3.78;;;22.10;73.60;;;;;;4189329;28;20043;-61